createdAt,value
2022-09-04T00:00:57.540Z,66.06
2022-09-04T00:02:36.208Z,66.15
2022-09-04T00:03:43.179Z,66.32
2022-09-04T00:04:50.331Z,66.17
2022-09-04T00:06:00.400Z,66.27
2022-09-04T00:07:19.107Z,66.18
2022-09-04T00:08:26.184Z,66.18
2022-09-04T00:09:33.171Z,66.44
2022-09-04T00:10:40.243Z,66.78
2022-09-04T00:11:50.036Z,66.62
2022-09-04T00:13:11.983Z,67.24
2022-09-04T00:14:21.241Z,66.84
2022-09-04T00:15:28.255Z,66.71
2022-09-04T00:16:47.147Z,66.79
2022-09-04T00:17:56.856Z,66.83
2022-09-04T00:19:18.627Z,66.73
2022-09-04T00:20:29.103Z,66.68
2022-09-04T00:21:41.708Z,67.03
2022-09-04T00:22:48.676Z,67.01
2022-09-04T00:24:01.460Z,66.96
2022-09-04T00:25:20.389Z,66.96
2022-09-04T00:26:43.444Z,66.99
2022-09-04T00:27:50.354Z,67.37
2022-09-04T00:29:03.026Z,67.68
2022-09-04T00:30:10.340Z,67.89
2022-09-04T00:31:38.277Z,67.69
2022-09-04T00:32:45.641Z,67.51
2022-09-04T00:34:10.383Z,67.51
2022-09-04T00:35:29.343Z,68.10
2022-09-04T00:36:36.630Z,68.32
2022-09-04T00:37:46.402Z,68.45
2022-09-04T00:38:56.059Z,68.39
2022-09-04T00:40:03.106Z,68.50
2022-09-04T00:41:26.560Z,68.65
2022-09-04T00:42:53.196Z,68.65
2022-09-04T00:44:19.192Z,68.30
2022-09-04T00:45:43.916Z,68.75
2022-09-04T00:46:59.508Z,68.75
2022-09-04T00:48:39.260Z,68.80
2022-09-04T00:50:22.046Z,69.08
2022-09-04T00:51:43.807Z,69.08
2022-09-04T00:53:17.495Z,69.51
2022-09-04T00:54:45.031Z,69.33
2022-09-04T00:56:00.570Z,70.01
2022-09-04T00:57:37.736Z,69.87
2022-09-04T00:58:47.199Z,69.87
2022-09-04T01:00:08.848Z,70.20
2022-09-04T01:01:17.372Z,70.20
2022-09-04T01:02:42.253Z,70.24
2022-09-04T01:04:05.520Z,69.99
2022-09-04T01:05:22.466Z,70.20
2022-09-04T01:06:36.024Z,70.20
2022-09-04T01:07:46.418Z,70.42
2022-09-04T01:09:12.947Z,70.46
2022-09-04T01:10:29.378Z,70.46
2022-09-04T01:11:52.707Z,70.55
2022-09-04T01:13:28.447Z,70.92
2022-09-04T01:14:44.316Z,70.92
2022-09-04T01:16:07.853Z,71.32
2022-09-04T01:17:35.609Z,71.32
2022-09-04T01:18:51.680Z,71.30
2022-09-04T01:20:31.660Z,71.31
2022-09-04T01:21:56.365Z,71.31
2022-09-04T01:23:03.279Z,71.58
2022-09-04T01:24:31.386Z,71.79
2022-09-04T01:25:54.866Z,71.79
2022-09-04T01:27:18.359Z,71.66
2022-09-04T01:28:32.507Z,72.12
2022-09-04T01:29:54.328Z,71.99
2022-09-04T01:31:01.442Z,71.92
2022-09-04T01:32:17.173Z,71.92
2022-09-04T01:33:26.940Z,71.87
2022-09-04T01:34:54.708Z,72.38
2022-09-04T01:36:25.897Z,72.46
2022-09-04T01:37:46.316Z,72.41
2022-09-04T01:39:01.966Z,72.41
2022-09-04T01:40:35.612Z,72.51
2022-09-04T01:41:38.655Z,72.51
2022-09-04T01:43:09.454Z,72.80
2022-09-04T01:44:13.590Z,73.09
2022-09-04T01:45:20.552Z,72.79
2022-09-04T01:46:31.833Z,72.79
2022-09-04T01:47:44.550Z,73.24
2022-09-04T01:48:54.387Z,73.13
2022-09-04T01:50:01.311Z,73.19
2022-09-04T01:51:08.294Z,73.19
2022-09-04T01:52:15.198Z,72.68
2022-09-04T01:53:28.199Z,73.20
2022-09-04T01:54:45.076Z,73.04
2022-09-04T01:56:03.535Z,73.33
2022-09-04T01:57:10.500Z,73.45
2022-09-04T01:58:23.786Z,73.45
2022-09-04T01:59:30.835Z,73.25
2022-09-04T02:00:58.151Z,73.25
2022-09-04T02:02:12.224Z,73.82
2022-09-04T02:03:35.351Z,73.95
2022-09-04T02:04:42.351Z,73.85
2022-09-04T02:05:49.347Z,73.81
2022-09-04T02:07:08.835Z,73.79
2022-09-04T02:08:30.465Z,74.04
2022-09-04T02:09:50.067Z,74.10
2022-09-04T02:11:04.743Z,74.10
2022-09-04T02:12:20.365Z,74.51
2022-09-04T02:13:45.108Z,74.51
2022-09-04T02:14:52.139Z,74.53
2022-09-04T02:16:08.337Z,75.09
2022-09-04T02:17:20.470Z,75.41
2022-09-04T02:18:27.485Z,75.41
2022-09-04T02:19:58.587Z,74.98
2022-09-04T02:21:07.121Z,75.37
2022-09-04T02:22:22.649Z,75.08
2022-09-04T02:23:41.620Z,75.64
2022-09-04T02:25:12.874Z,75.80
2022-09-04T02:26:53.226Z,75.68
2022-09-04T02:28:01.664Z,75.74
2022-09-04T02:29:14.105Z,75.81
2022-09-04T02:30:20.406Z,75.47
2022-09-04T02:31:48.575Z,75.80
2022-09-04T02:33:11.970Z,75.71
2022-09-04T02:34:39.671Z,75.71
2022-09-04T02:35:58.711Z,75.86
2022-09-04T02:37:11.943Z,75.91
2022-09-04T02:38:27.330Z,75.78
2022-09-04T02:39:40.023Z,76.41
2022-09-04T02:41:15.554Z,76.55
2022-09-04T02:42:46.709Z,76.33
2022-09-04T02:44:15.769Z,76.46
2022-09-04T02:45:43.321Z,76.26
2022-09-04T02:47:06.815Z,76.23
2022-09-04T02:48:33.318Z,76.48
2022-09-04T02:50:00.596Z,76.20
2022-09-04T02:51:12.710Z,76.26
2022-09-04T02:52:22.370Z,76.26
2022-09-04T02:53:52.028Z,76.79
2022-09-04T02:55:16.903Z,76.84
2022-09-04T02:56:35.470Z,76.66
2022-09-04T02:58:09.535Z,76.77
2022-09-04T02:59:28.629Z,77.24
2022-09-04T03:00:44.571Z,76.91
2022-09-04T03:02:00.638Z,76.88
2022-09-04T03:03:19.504Z,76.88
2022-09-04T03:04:41.422Z,77.15
2022-09-04T03:06:00.479Z,77.35
2022-09-04T03:07:10.361Z,76.61
2022-09-04T03:08:22.814Z,77.12
2022-09-04T03:09:35.507Z,77.12
2022-09-04T03:10:44.603Z,76.81
2022-09-04T03:11:52.843Z,76.81
2022-09-04T03:13:05.887Z,76.93
2022-09-04T03:14:21.409Z,76.76
2022-09-04T03:15:39.921Z,76.70
2022-09-04T03:16:52.543Z,76.48
2022-09-04T03:18:02.568Z,76.74
2022-09-04T03:19:41.119Z,76.74
2022-09-04T03:20:54.137Z,76.61
2022-09-04T03:22:10.127Z,76.61
2022-09-04T03:23:22.961Z,76.65
2022-09-04T03:24:32.828Z,76.72
2022-09-04T03:26:04.652Z,76.74
2022-09-04T03:27:13.188Z,76.48
2022-09-04T03:28:42.654Z,76.46
2022-09-04T03:30:01.611Z,75.91
2022-09-04T03:31:31.017Z,75.61
2022-09-04T03:32:57.429Z,75.62
2022-09-04T03:34:39.696Z,75.54
2022-09-04T03:35:52.653Z,75.54
2022-09-04T03:37:09.035Z,74.19
2022-09-04T03:38:36.421Z,72.66
2022-09-04T03:40:09.131Z,72.03
2022-09-04T03:41:31.076Z,72.03
2022-09-04T03:42:49.967Z,69.60
2022-09-04T03:44:05.881Z,69.60
2022-09-04T03:45:12.795Z,68.41
2022-09-04T03:46:53.192Z,66.29
2022-09-04T03:48:19.379Z,65.52
2022-09-04T03:49:40.701Z,64.66
2022-09-04T03:51:03.049Z,63.84
2022-09-04T03:52:36.996Z,63.33
2022-09-04T03:54:02.131Z,62.36
2022-09-04T03:55:25.526Z,62.36
2022-09-04T03:56:38.695Z,60.80
2022-09-04T03:58:05.571Z,60.53
2022-09-04T03:59:15.101Z,60.53
2022-09-04T04:00:22.524Z,59.48
2022-09-04T04:01:41.346Z,58.67
2022-09-04T04:03:10.870Z,58.43
2022-09-04T04:04:49.403Z,57.97
2022-09-04T04:06:03.663Z,57.19
2022-09-04T04:07:39.134Z,56.84
2022-09-04T04:09:03.754Z,56.84
2022-09-04T04:10:11.225Z,55.58
2022-09-04T04:11:32.865Z,55.50
2022-09-04T04:12:59.378Z,54.76
2022-09-04T04:14:24.340Z,54.76
2022-09-04T04:15:53.571Z,53.75
2022-09-04T04:17:20.675Z,54.13
2022-09-04T04:18:36.232Z,53.23
2022-09-04T04:20:02.515Z,53.23
2022-09-04T04:21:24.198Z,52.25
2022-09-04T04:22:36.359Z,52.06
2022-09-04T04:24:02.389Z,52.06
2022-09-04T04:25:21.021Z,50.62
2022-09-04T04:26:46.014Z,50.33
2022-09-04T04:27:58.550Z,49.71
2022-09-04T04:29:09.331Z,49.64
2022-09-04T04:30:17.572Z,49.65
2022-09-04T04:31:43.696Z,49.04
2022-09-04T04:33:09.832Z,49.07
2022-09-04T04:34:28.627Z,49.24
2022-09-04T04:35:52.042Z,49.24
2022-09-04T04:37:13.732Z,49.12
2022-09-04T04:38:34.891Z,48.97
2022-09-04T04:39:41.933Z,48.99
2022-09-04T04:41:09.819Z,48.83
2022-09-04T04:42:37.644Z,48.87
2022-09-04T04:43:53.321Z,48.15
2022-09-04T04:45:18.269Z,48.15
2022-09-04T04:46:43.631Z,47.88
2022-09-04T04:48:23.404Z,47.82
2022-09-04T04:50:04.735Z,47.82
2022-09-04T04:51:33.571Z,47.78
2022-09-04T04:52:51.852Z,47.78
2022-09-04T04:54:13.662Z,47.74
2022-09-04T04:55:25.939Z,47.63
2022-09-04T04:56:59.938Z,47.38
2022-09-04T04:58:21.521Z,46.97
2022-09-04T04:59:45.086Z,46.94
2022-09-04T05:01:14.497Z,47.14
2022-09-04T05:02:21.709Z,46.88
2022-09-04T05:03:31.533Z,45.96
2022-09-04T05:04:59.713Z,46.08
2022-09-04T05:06:12.521Z,46.08
2022-09-04T05:07:28.126Z,46.60
2022-09-04T05:08:40.899Z,46.82
2022-09-04T05:10:02.537Z,46.82
2022-09-04T05:11:28.522Z,46.70
2022-09-04T05:12:35.492Z,46.88
2022-09-04T05:13:54.346Z,47.18
2022-09-04T05:15:04.219Z,46.96
2022-09-04T05:16:28.112Z,47.30
2022-09-04T05:17:40.997Z,47.39
2022-09-04T05:18:59.672Z,47.28
2022-09-04T05:20:16.972Z,47.21
2022-09-04T05:21:24.012Z,47.21
2022-09-04T05:22:36.756Z,47.59
2022-09-04T05:23:43.783Z,47.83
2022-09-04T05:24:54.057Z,47.59
2022-09-04T05:26:01.992Z,47.59
2022-09-04T05:27:09.025Z,47.85
2022-09-04T05:28:37.096Z,47.85
2022-09-04T05:30:00.624Z,47.93
2022-09-04T05:31:16.661Z,47.23
2022-09-04T05:32:32.327Z,46.49
2022-09-04T05:33:55.897Z,46.95
2022-09-04T05:35:16.212Z,46.91
2022-09-04T05:36:28.854Z,46.70
2022-09-04T05:37:47.617Z,46.54
2022-09-04T05:39:17.369Z,46.54
2022-09-04T05:40:30.543Z,46.64
2022-09-04T05:41:43.228Z,46.08
2022-09-04T05:42:58.886Z,46.54
2022-09-04T05:44:32.911Z,45.64
2022-09-04T05:45:42.674Z,45.68
2022-09-04T05:47:13.556Z,45.68
2022-09-04T05:48:26.558Z,45.92
2022-09-04T05:49:45.681Z,45.92
2022-09-04T05:51:07.596Z,45.93
2022-09-04T05:52:34.044Z,45.93
2022-09-04T05:53:52.995Z,45.52
2022-09-04T05:55:21.190Z,45.97
2022-09-04T05:56:44.922Z,44.97
2022-09-04T05:58:08.321Z,45.32
2022-09-04T05:59:37.519Z,46.27
2022-09-04T06:01:07.424Z,46.27
2022-09-04T06:02:19.805Z,45.66
2022-09-04T06:03:45.024Z,45.66
2022-09-04T06:05:25.087Z,45.54
2022-09-04T06:06:50.331Z,45.45
2022-09-04T06:07:57.329Z,45.45
2022-09-04T06:09:04.425Z,45.06
2022-09-04T06:10:11.930Z,45.04
2022-09-04T06:11:40.024Z,44.35
2022-09-04T06:13:10.775Z,44.35
2022-09-04T06:14:48.470Z,44.35
2022-09-04T06:16:10.501Z,44.54
2022-09-04T06:17:29.515Z,44.66
2022-09-04T06:18:51.384Z,44.97
2022-09-04T06:20:10.315Z,44.72
2022-09-04T06:21:17.296Z,44.35
2022-09-04T06:22:32.995Z,44.35
2022-09-04T06:24:11.921Z,44.76
2022-09-04T06:25:23.490Z,44.41
2022-09-04T06:26:30.983Z,43.41
2022-09-04T06:27:55.804Z,43.41
2022-09-04T06:29:29.672Z,43.56
2022-09-04T06:31:00.715Z,43.29
2022-09-04T06:32:26.976Z,42.96
2022-09-04T06:33:42.918Z,43.00
2022-09-04T06:34:58.910Z,42.33
2022-09-04T06:36:23.459Z,42.61
2022-09-04T06:37:52.433Z,42.61
2022-09-04T06:39:24.770Z,42.57
2022-09-04T06:40:54.604Z,42.29
2022-09-04T06:42:19.319Z,41.99
2022-09-04T06:43:32.249Z,41.99
2022-09-04T06:44:39.263Z,40.94
2022-09-04T06:45:51.845Z,41.96
2022-09-04T06:47:00.629Z,41.96
2022-09-04T06:48:10.503Z,40.89
2022-09-04T06:49:26.467Z,40.89
2022-09-04T06:50:36.475Z,40.06
2022-09-04T06:52:02.853Z,40.74
2022-09-04T06:53:09.847Z,40.74
2022-09-04T06:54:36.738Z,41.08
2022-09-04T06:56:03.523Z,40.85
2022-09-04T06:57:16.215Z,39.92
2022-09-04T06:58:29.103Z,40.13
2022-09-04T06:59:53.807Z,40.13
2022-09-04T07:01:06.678Z,39.51
2022-09-04T07:02:16.395Z,39.46
2022-09-04T07:03:29.133Z,39.26
2022-09-04T07:05:01.249Z,39.26
2022-09-04T07:06:32.055Z,38.70
2022-09-04T07:07:39.065Z,38.03
2022-09-04T07:08:46.061Z,38.03
2022-09-04T07:10:01.564Z,36.73
2022-09-04T07:11:19.459Z,36.73
2022-09-04T07:12:26.463Z,37.15
2022-09-04T07:13:39.441Z,36.82
2022-09-04T07:14:55.231Z,38.15
2022-09-04T07:16:22.925Z,37.34
2022-09-04T07:18:01.252Z,37.07
2022-09-04T07:19:26.175Z,36.85
2022-09-04T07:20:35.795Z,36.60
2022-09-04T07:21:51.751Z,36.47
2022-09-04T07:23:10.830Z,36.13
2022-09-04T07:24:50.896Z,35.46
2022-09-04T07:26:14.236Z,35.46
2022-09-04T07:27:48.285Z,35.28
2022-09-04T07:29:16.109Z,35.89
2022-09-04T07:30:21.036Z,35.40
2022-09-04T07:31:31.076Z,34.93
2022-09-04T07:32:54.564Z,34.98
2022-09-04T07:34:10.391Z,34.98
2022-09-04T07:35:35.241Z,35.27
2022-09-04T07:37:00.564Z,34.91
2022-09-04T07:38:13.464Z,36.03
2022-09-04T07:39:31.945Z,35.91
2022-09-04T07:42:53.080Z,35.05
2022-09-04T07:44:11.751Z,35.73
2022-09-04T07:45:38.151Z,36.05
2022-09-04T07:47:01.432Z,35.53
2022-09-04T07:48:24.894Z,35.79
2022-09-04T07:49:34.769Z,35.68
2022-09-04T07:50:44.651Z,35.54
2022-09-04T07:51:58.139Z,34.96
2022-09-04T07:53:11.483Z,35.14
2022-09-04T07:54:23.022Z,36.12
2022-09-04T07:55:47.528Z,36.12
2022-09-04T07:57:12.092Z,34.62
2022-09-04T07:58:34.177Z,34.71
2022-09-04T07:59:44.183Z,34.77
2022-09-04T08:01:10.899Z,34.57
2022-09-04T08:02:29.880Z,34.57
2022-09-04T08:04:09.951Z,34.70
2022-09-04T08:05:24.240Z,34.70
2022-09-04T08:06:37.782Z,34.36
2022-09-04T08:07:50.231Z,34.65
2022-09-04T08:09:28.625Z,34.87
2022-09-04T08:10:52.120Z,35.83
2022-09-04T08:12:04.645Z,35.83
2022-09-04T08:13:11.622Z,34.87
2022-09-04T08:14:42.737Z,34.51
2022-09-04T08:16:01.294Z,34.21
2022-09-04T08:17:33.664Z,34.21
2022-09-04T08:18:45.175Z,34.73
2022-09-04T08:19:55.339Z,34.98
2022-09-04T08:21:30.936Z,34.93
2022-09-04T08:22:59.056Z,34.93
2022-09-04T08:24:13.199Z,33.52
2022-09-04T08:25:44.269Z,33.97
2022-09-04T08:27:06.119Z,34.82
2022-09-04T08:28:22.261Z,34.17
2022-09-04T08:29:46.991Z,34.10
2022-09-04T08:30:59.629Z,34.67
2022-09-04T08:32:23.097Z,34.43
2022-09-04T08:33:46.478Z,33.63
2022-09-04T08:35:13.525Z,33.63
2022-09-04T08:36:23.801Z,33.67
2022-09-04T08:37:39.644Z,34.54
2022-09-04T08:38:49.435Z,34.64
2022-09-04T08:40:14.273Z,34.22
2022-09-04T08:41:33.956Z,34.06
2022-09-04T08:42:46.709Z,34.06
2022-09-04T08:44:02.766Z,33.66
2022-09-04T08:45:42.683Z,33.48
2022-09-04T08:47:02.032Z,33.71
2022-09-04T08:48:41.872Z,33.12
2022-09-04T08:49:48.946Z,33.43
2022-09-04T08:51:07.253Z,34.17
2022-09-04T08:52:14.638Z,33.19
2022-09-04T08:53:24.430Z,33.65
2022-09-04T08:55:06.685Z,34.21
2022-09-04T08:56:28.742Z,32.91
2022-09-04T08:57:50.405Z,33.03
2022-09-04T08:59:03.365Z,33.03
2022-09-04T09:00:19.245Z,33.26
2022-09-04T09:01:59.111Z,33.70
2022-09-04T09:05:17.947Z,34.26
2022-09-04T09:06:44.408Z,33.70
2022-09-04T09:07:51.403Z,32.81
2022-09-04T09:09:31.621Z,33.14
2022-09-04T09:10:50.577Z,33.20
2022-09-04T09:12:06.040Z,33.61
2022-09-04T09:13:24.645Z,34.00
2022-09-04T09:14:49.857Z,34.05
2022-09-04T09:16:12.935Z,34.43
2022-09-04T09:17:35.114Z,34.99
2022-09-04T09:19:06.125Z,35.45
2022-09-04T09:20:20.026Z,34.97
2022-09-04T09:21:55.984Z,34.87
2022-09-04T09:23:31.421Z,35.08
2022-09-04T09:24:56.575Z,35.24
2022-09-04T09:26:18.373Z,35.24
2022-09-04T09:27:40.054Z,35.11
2022-09-04T09:28:51.312Z,34.63
2022-09-04T09:30:17.626Z,35.65
2022-09-04T09:32:03.803Z,35.65
2022-09-04T09:33:28.585Z,35.16
2022-09-04T09:34:50.298Z,35.16
2022-09-04T09:36:23.660Z,34.22
2022-09-04T09:37:42.584Z,33.67
2022-09-04T09:39:11.787Z,33.67
2022-09-04T09:40:38.281Z,33.37
2022-09-04T09:41:50.960Z,33.63
2022-09-04T09:43:17.461Z,33.85
2022-09-04T09:44:44.261Z,33.91
2022-09-04T09:45:59.831Z,33.91
2022-09-04T09:47:38.541Z,33.83
2022-09-04T09:48:54.303Z,33.15
2022-09-04T09:50:19.283Z,33.45
2022-09-04T09:51:59.533Z,31.75
2022-09-04T09:53:27.255Z,31.09
2022-09-04T09:54:51.921Z,31.09
2022-09-04T09:56:00.148Z,31.78
2022-09-04T09:57:33.387Z,31.51
2022-09-04T09:58:48.314Z,31.81
2022-09-04T10:00:06.222Z,32.03
2022-09-04T10:01:21.740Z,31.37
2022-09-04T10:02:45.358Z,31.36
2022-09-04T10:04:34.204Z,31.36
2022-09-04T10:06:11.078Z,31.27
2022-09-04T10:07:46.661Z,31.59
2022-09-04T10:09:09.504Z,31.71
2022-09-04T10:10:22.021Z,31.71
2022-09-04T10:11:50.083Z,31.91
2022-09-04T10:13:16.047Z,31.91
2022-09-04T10:14:34.748Z,31.47
2022-09-04T10:16:07.180Z,31.62
2022-09-04T10:17:22.997Z,31.49
2022-09-04T10:19:04.777Z,31.98
2022-09-04T10:20:29.765Z,31.25
2022-09-04T10:21:57.793Z,31.93
2022-09-04T10:23:20.694Z,31.93
2022-09-04T10:24:49.314Z,30.57
2022-09-04T10:26:10.455Z,30.69
2022-09-04T10:27:43.159Z,31.39
2022-09-04T10:29:04.998Z,31.70
2022-09-04T10:30:12.395Z,31.33
2022-09-04T10:31:34.438Z,29.83
2022-09-04T10:32:50.408Z,29.14
2022-09-04T10:34:32.163Z,30.53
2022-09-04T10:35:39.149Z,30.28
2022-09-04T10:37:05.367Z,30.28
2022-09-04T10:38:27.409Z,29.77
2022-09-04T10:39:38.574Z,29.90
2022-09-04T10:41:14.106Z,29.90
2022-09-04T10:42:36.779Z,31.28
2022-09-04T10:43:49.581Z,28.86
2022-09-04T10:45:00.307Z,28.70
2022-09-04T10:46:23.437Z,28.03
2022-09-04T10:47:36.495Z,29.20
2022-09-04T10:49:10.311Z,29.20
2022-09-04T10:50:20.216Z,30.05
2022-09-04T10:51:41.029Z,29.61
2022-09-04T10:53:18.366Z,29.61
2022-09-04T10:54:33.721Z,30.56
2022-09-04T10:55:49.531Z,30.72
2022-09-04T10:57:12.994Z,30.43
2022-09-04T10:58:20.024Z,30.12
2022-09-04T10:59:34.683Z,30.61
2022-09-04T11:00:44.821Z,30.66
2022-09-04T11:02:18.611Z,29.40
2022-09-04T11:03:34.521Z,29.53
2022-09-04T11:04:58.936Z,30.74
2022-09-04T11:06:17.342Z,29.95
2022-09-04T11:07:37.835Z,29.95
2022-09-04T11:08:59.556Z,29.81
2022-09-04T11:10:06.734Z,30.15
2022-09-04T11:11:30.151Z,29.64
2022-09-04T11:13:01.015Z,28.87
2022-09-04T11:14:16.699Z,28.87
2022-09-04T11:15:47.366Z,29.09
2022-09-04T11:17:12.511Z,30.05
2022-09-04T11:18:36.577Z,29.99
2022-09-04T11:20:16.171Z,30.31
2022-09-04T11:21:35.830Z,29.74
2022-09-04T11:22:57.999Z,29.20
2022-09-04T11:24:31.857Z,28.87
2022-09-04T11:25:41.398Z,28.96
2022-09-04T11:26:55.481Z,29.35
2022-09-04T11:28:16.792Z,29.21
2022-09-04T11:29:43.459Z,28.59
2022-09-04T11:30:50.525Z,28.59
2022-09-04T11:32:15.682Z,29.55
2022-09-04T11:33:28.584Z,29.01
2022-09-04T11:34:47.454Z,29.01
2022-09-04T11:36:15.640Z,28.47
2022-09-04T11:37:39.704Z,28.54
2022-09-04T11:39:03.028Z,29.13
2022-09-04T11:40:15.694Z,28.99
2022-09-04T11:41:22.701Z,28.99
2022-09-04T11:42:41.523Z,29.00
2022-09-04T11:44:03.471Z,29.00
2022-09-04T11:45:26.906Z,29.58
2022-09-04T11:46:40.060Z,29.58
2022-09-04T11:48:01.854Z,29.82
2022-09-04T11:49:14.884Z,30.11
2022-09-04T11:50:36.894Z,29.96
2022-09-04T11:52:16.879Z,30.34
2022-09-04T11:53:54.253Z,30.34
2022-09-04T11:55:04.296Z,29.40
2022-09-04T11:56:27.932Z,30.71
2022-09-04T11:57:54.431Z,30.42
2022-09-04T11:59:22.439Z,30.46
2022-09-04T12:00:30.683Z,30.48
2022-09-04T12:01:47.491Z,30.44
2022-09-04T12:03:16.813Z,30.44
2022-09-04T12:04:39.697Z,30.29
2022-09-04T12:06:15.617Z,30.47
2022-09-04T12:07:54.422Z,30.47
2022-09-04T12:09:23.741Z,30.44
2022-09-04T12:10:47.093Z,30.44
2022-09-04T12:12:12.029Z,28.87
2022-09-04T12:13:42.848Z,28.87
2022-09-04T12:15:07.548Z,29.67
2022-09-04T12:16:18.851Z,29.67
2022-09-04T12:17:43.675Z,29.79
2022-09-04T12:19:15.830Z,29.79
2022-09-04T12:20:41.778Z,29.92
2022-09-04T12:22:00.671Z,29.98
2022-09-04T12:23:19.427Z,29.98
2022-09-04T12:24:38.135Z,30.06
2022-09-04T12:26:07.280Z,29.79
2022-09-04T12:27:33.643Z,29.62
2022-09-04T12:28:43.303Z,29.30
2022-09-04T12:30:12.440Z,29.30
2022-09-04T12:31:25.309Z,29.83
2022-09-04T12:32:32.426Z,29.61
2022-09-04T12:33:48.396Z,29.18
2022-09-04T12:35:15.532Z,29.93
2022-09-04T12:36:25.450Z,29.93
2022-09-04T12:37:52.460Z,29.68
2022-09-04T12:39:13.688Z,29.94
2022-09-04T12:40:49.599Z,30.59
2022-09-04T12:42:14.458Z,30.21
2022-09-04T12:43:47.039Z,31.22
2022-09-04T12:44:59.633Z,31.22
2022-09-04T12:46:42.589Z,30.48
2022-09-04T12:48:05.750Z,30.36
2022-09-04T12:49:15.497Z,31.34
2022-09-04T12:50:34.609Z,30.58
2022-09-04T12:51:48.473Z,31.09
2022-09-04T12:53:04.285Z,31.09
2022-09-04T12:54:28.309Z,30.91
2022-09-04T12:55:54.785Z,30.91
2022-09-04T12:57:20.799Z,31.00
2022-09-04T12:58:40.924Z,30.67
2022-09-04T13:00:02.707Z,31.18
2022-09-04T13:01:09.891Z,31.18
2022-09-04T13:02:34.864Z,31.33
2022-09-04T13:04:06.034Z,31.04
2022-09-04T13:05:32.276Z,30.11
2022-09-04T13:06:56.169Z,30.11
2022-09-04T13:08:06.070Z,30.24
2022-09-04T13:09:28.978Z,30.11
2022-09-04T13:10:38.624Z,30.11
2022-09-04T13:12:00.611Z,29.70
2022-09-04T13:13:22.637Z,29.94
2022-09-04T13:15:05.823Z,29.80
2022-09-04T13:16:33.012Z,29.59
2022-09-04T13:18:08.505Z,29.59
2022-09-04T13:19:43.741Z,29.58
2022-09-04T13:21:13.100Z,29.48
2022-09-04T13:22:39.581Z,29.81
2022-09-04T13:23:55.387Z,29.81
2022-09-04T13:25:26.419Z,29.32
2022-09-04T13:26:34.196Z,29.32
2022-09-04T13:27:59.079Z,30.40
2022-09-04T13:29:11.888Z,30.40
2022-09-04T13:30:24.458Z,29.82
2022-09-04T13:31:34.604Z,28.92
2022-09-04T13:32:59.521Z,27.99
2022-09-04T13:34:06.540Z,27.99
2022-09-04T13:35:36.487Z,28.46
2022-09-04T13:36:58.653Z,29.15
2022-09-04T13:38:23.464Z,28.69
2022-09-04T13:40:03.542Z,28.24
2022-09-04T13:41:30.530Z,28.24
2022-09-04T13:42:52.575Z,29.45
2022-09-04T13:44:02.320Z,28.82
2022-09-04T13:45:12.027Z,28.93
2022-09-04T13:46:19.387Z,28.93
2022-09-04T13:47:33.151Z,29.53
2022-09-04T13:49:00.613Z,29.09
2022-09-04T13:50:07.611Z,28.76
2022-09-04T13:51:29.335Z,28.76
2022-09-04T13:52:29.034Z,29.34
2022-09-04T13:53:38.855Z,29.52
2022-09-04T13:54:51.730Z,29.87
2022-09-04T13:55:58.738Z,29.78
2022-09-04T13:57:11.602Z,29.78
2022-09-04T13:58:18.642Z,29.80
2022-09-04T13:59:23.875Z,29.80
2022-09-04T14:00:31.764Z,30.18
2022-09-04T14:01:42.236Z,30.38
2022-09-04T14:02:48.802Z,30.70
2022-09-04T14:03:58.642Z,30.70
2022-09-04T14:05:18.787Z,31.24
2022-09-04T14:06:25.563Z,31.24
2022-09-04T14:07:32.675Z,31.49
2022-09-04T14:08:41.028Z,31.49
2022-09-04T14:09:47.797Z,31.41
2022-09-04T14:10:57.847Z,31.41
2022-09-04T14:12:18.463Z,31.19
2022-09-04T14:13:34.972Z,30.66
2022-09-04T14:14:59.773Z,31.36
2022-09-04T14:16:06.529Z,30.33
2022-09-04T14:17:11.086Z,30.52
2022-09-04T14:18:24.144Z,30.50
2022-09-04T14:19:41.878Z,30.50
2022-09-04T14:21:03.461Z,31.37
2022-09-04T14:23:45.292Z,31.71
2022-09-04T14:25:06.752Z,31.80
2022-09-04T14:26:12.689Z,31.44
2022-09-04T14:27:37.802Z,31.79
2022-09-04T14:28:50.783Z,31.79
2022-09-04T14:30:05.246Z,31.97
2022-09-04T14:31:34.044Z,31.97
2022-09-04T14:32:06.706Z,31.37
2022-09-04T14:32:54.556Z,31.27
2022-09-04T14:34:06.336Z,31.24
2022-09-04T14:35:35.316Z,31.24
2022-09-04T14:36:42.650Z,31.28
2022-09-04T14:38:12.706Z,31.28
2022-09-04T14:39:25.768Z,30.11
2022-09-04T14:40:35.864Z,30.14
2022-09-04T14:41:55.019Z,30.14
2022-09-04T14:43:06.295Z,30.14
2022-09-04T14:44:26.520Z,30.71
2022-09-04T14:45:52.773Z,30.24
2022-09-04T14:47:07.269Z,30.52
2022-09-04T14:48:13.212Z,30.43
2022-09-04T14:49:20.229Z,31.01
2022-09-04T14:50:27.785Z,29.89
2022-09-04T14:51:40.719Z,30.63
2022-09-04T14:52:50.790Z,30.09
2022-09-04T14:53:55.321Z,30.32
2022-09-04T14:55:00.764Z,30.15
2022-09-04T14:56:13.256Z,30.50
2022-09-04T14:57:23.230Z,30.61
2022-09-04T14:58:30.243Z,30.61
2022-09-04T14:59:39.243Z,29.95
2022-09-04T15:01:05.838Z,29.87
2022-09-04T15:02:12.869Z,30.24
2022-09-04T15:03:21.472Z,30.24
2022-09-04T15:04:32.525Z,30.75
2022-09-04T15:05:52.327Z,29.65
2022-09-04T15:07:11.358Z,29.65
2022-09-04T15:08:10.093Z,30.26
2022-09-04T15:09:30.411Z,30.26
2022-09-04T15:10:37.970Z,30.13
2022-09-04T15:11:46.448Z,30.15
2022-09-04T15:13:17.071Z,30.15
2022-09-04T15:14:29.760Z,30.01
2022-09-04T15:15:39.515Z,30.72
2022-09-04T15:16:46.687Z,30.76
2022-09-04T15:18:11.589Z,31.02
2022-09-04T15:19:48.710Z,31.02
2022-09-04T15:21:03.567Z,30.29
2022-09-04T15:22:10.571Z,31.01
2022-09-04T15:23:33.896Z,31.01
2022-09-04T15:24:40.833Z,30.48
2022-09-04T15:25:58.804Z,30.62
2022-09-04T15:27:23.770Z,31.11
2022-09-04T15:28:51.650Z,31.77
2022-09-04T15:29:58.650Z,31.12
2022-09-04T15:31:16.481Z,31.12
2022-09-04T15:32:26.786Z,31.39
2022-09-04T15:33:31.716Z,31.58
2022-09-04T15:34:37.206Z,31.27
2022-09-04T15:35:41.607Z,31.54
2022-09-04T15:36:47.435Z,31.85
2022-09-04T15:37:54.421Z,31.90
2022-09-04T15:39:03.765Z,31.90
2022-09-04T15:40:13.554Z,31.83
2022-09-04T15:41:41.486Z,31.82
2022-09-04T15:42:47.854Z,31.55
2022-09-04T15:44:15.524Z,31.72
2022-09-04T15:45:25.281Z,31.67
2022-09-04T15:46:46.984Z,31.73
2022-09-04T15:48:05.365Z,32.48
2022-09-04T15:49:21.231Z,32.29
2022-09-04T15:50:28.108Z,32.20
2022-09-04T15:51:49.908Z,32.10
2022-09-04T15:52:57.004Z,32.49
2022-09-04T15:54:15.909Z,32.10
2022-09-04T15:55:35.166Z,32.05
2022-09-04T15:56:45.108Z,32.28
2022-09-04T15:58:09.961Z,32.28
2022-09-04T15:59:22.534Z,32.42
2022-09-04T16:00:28.949Z,32.39
2022-09-04T16:01:38.604Z,32.15
2022-09-04T16:02:51.518Z,33.02
2022-09-04T16:04:04.272Z,33.02
2022-09-04T16:05:14.041Z,33.29
2022-09-04T16:06:22.229Z,33.34
2022-09-04T16:07:37.962Z,33.34
2022-09-04T16:08:48.080Z,33.51
2022-09-04T16:09:58.090Z,33.85
2022-09-04T16:11:05.218Z,33.85
2022-09-04T16:12:33.437Z,34.00
2022-09-04T16:13:48.471Z,33.66
2022-09-04T16:14:55.474Z,34.40
2022-09-04T16:16:18.802Z,34.37
2022-09-04T16:17:26.141Z,34.39
2022-09-04T16:18:41.827Z,34.42
2022-09-04T16:19:57.559Z,34.41
2022-09-04T16:21:04.594Z,34.31
2022-09-04T16:22:20.224Z,34.03
2022-09-04T16:23:35.927Z,34.03
2022-09-04T16:24:45.712Z,34.31
2022-09-04T16:25:50.764Z,34.04
2022-09-04T16:26:55.965Z,34.41
2022-09-04T16:28:28.594Z,34.32
2022-09-04T16:29:50.646Z,34.81
2022-09-04T16:31:04.215Z,35.10
2022-09-04T16:32:12.828Z,35.04
2022-09-04T16:33:28.109Z,35.21
2022-09-04T16:34:37.139Z,34.99
2022-09-04T16:35:43.364Z,34.99
2022-09-04T16:36:50.418Z,35.05
2022-09-04T16:38:00.180Z,35.10
2022-09-04T16:39:14.551Z,35.19
2022-09-04T16:40:34.017Z,35.19
2022-09-04T16:41:41.064Z,35.71
2022-09-04T16:42:51.392Z,36.21
2022-09-04T16:44:16.490Z,36.21
2022-09-04T16:45:28.181Z,35.75
2022-09-04T16:46:34.729Z,36.23
2022-09-04T16:47:47.431Z,37.06
2022-09-04T16:48:57.117Z,37.32
2022-09-04T16:50:09.996Z,36.69
2022-09-04T16:51:40.748Z,36.76
2022-09-04T16:52:34.160Z,37.40
2022-09-04T16:53:51.981Z,37.73
2022-09-04T16:54:58.511Z,38.30
2022-09-04T16:56:05.519Z,38.30
2022-09-04T16:57:18.294Z,39.38
2022-09-04T16:58:29.889Z,39.31
2022-09-04T16:59:53.236Z,39.53
2022-09-04T17:01:15.860Z,39.53
2022-09-04T17:02:47.830Z,42.21